Time;durP1;ratioP1;P1;durP2;ratioP2;P2;SDS_P1;SDS_P2;PMS_P1;PMS_P2;Temp;Humidity;BMP_temperature;BMP_pressure;BME280_temperature;BME280_humidity;BME280_pressure;Samples;Min_cycle;Max_cycle;Signal;HPM_P1;HPM_P2
2023/01/01 00:01:53;;;;;;;8.65;0.70;;;;;;;;;;6204292;23;20456;-62
2023/01/01 00:04:21;;;;;;;6.57;1.10;;;;;;;;;;6213290;23;20020;-63
2023/01/01 00:06:48;;;;;;;7.28;2.28;;;;;;;;;;6209341;23;20040;-62
2023/01/01 00:12:03;;;;;;;4.47;0.80;;;;;;;;;;6218013;23;20012;-64
2023/01/01 00:14:30;;;;;;;5.38;1.10;;;;;;;;;;6207546;23;20086;-63
2023/01/01 00:16:58;;;;;;;8.57;3.03;;;;;;;;;;6216026;23;20020;-60
2023/01/01 00:19:26;;;;;;;6.60;2.25;;;;;;;;;;6214730;23;20073;-64
2023/01/01 00:21:54;;;;;;;7.70;1.80;;;;;;;;;;6204701;23;20029;-64
2023/01/01 00:24:21;;;;;;;2.97;0.22;;;;;;;;;;6221200;23;20024;-62
2023/01/01 00:26:49;;;;;;;5.13;0.85;;;;;;;;;;6208646;23;20040;-62
2023/01/01 00:29:19;;;;;;;8.70;0.57;;;;;;;;;;6217328;23;20145;-64
2023/01/01 00:31:47;;;;;;;7.20;0.80;;;;;;;;;;6212199;23;20019;-63
2023/01/01 00:34:14;;;;;;;7.45;0.90;;;;;;;;;;6218246;23;20020;-62
2023/01/01 00:36:42;;;;;;;7.75;1.00;;;;;;;;;;6207566;23;20099;-62
2023/01/01 00:39:10;;;;;;;6.10;0.65;;;;;;;;;;6217013;23;20447;-62
2023/01/01 00:41:37;;;;;;;7.53;0.60;;;;;;;;;;6179760;23;20457;-62
2023/01/01 00:44:05;;;;;;;6.72;1.15;;;;;;;;;;6214713;23;20040;-65
2023/01/01 00:46:34;;;;;;;9.52;1.00;;;;;;;;;;6199897;23;20023;-65
2023/01/01 00:49:01;;;;;;;9.75;1.13;;;;;;;;;;6223244;23;20012;-64
2023/01/01 00:51:30;;;;;;;5.38;0.70;;;;;;;;;;6208858;23;20016;-64
2023/01/01 00:54:03;;;;;;;5.83;0.50;;;;;;;;;;6189958;23;20027;-64
2023/01/01 00:56:31;;;;;;;10.48;0.82;;;;;;;;;;6210588;23;20020;-64
2023/01/01 00:59:01;;;;;;;8.45;1.05;;;;;;;;;;6186385;23;20066;-63
2023/01/01 01:01:29;;;;;;;10.13;0.70;;;;;;;;;;6221609;23;20486;-64
2023/01/01 01:03:59;;;;;;;8.95;0.77;;;;;;;;;;6202357;23;20046;-64
2023/01/01 01:06:26;;;;;;;4.90;0.57;;;;;;;;;;6217004;23;20050;-65
2023/01/01 01:08:54;;;;;;;13.88;1.00;;;;;;;;;;6210674;23;20075;-65
2023/01/01 01:11:22;;;;;;;11.77;1.33;;;;;;;;;;6188453;23;20062;-63
2023/01/01 01:13:53;;;;;;;8.10;0.70;;;;;;;;;;6213403;23;20008;-64
2023/01/01 01:16:22;;;;;;;15.88;1.33;;;;;;;;;;6209579;23;20027;-64
2023/01/01 01:18:51;;;;;;;8.37;0.83;;;;;;;;;;6218576;23;20018;-63
2023/01/01 01:21:21;;;;;;;8.77;0.70;;;;;;;;;;6215487;23;20360;-64
2023/01/01 01:23:50;;;;;;;6.72;0.98;;;;;;;;;;6217818;23;20109;-64
2023/01/01 01:26:19;;;;;;;6.30;0.52;;;;;;;;;;6208271;23;20170;-63
2023/01/01 01:28:46;;;;;;;5.82;0.80;;;;;;;;;;6217826;23;20091;-65
2023/01/01 01:31:16;;;;;;;7.27;0.70;;;;;;;;;;6216287;23;20078;-64
2023/01/01 01:33:45;;;;;;;11.48;0.73;;;;;;;;;;6188793;23;20447;-63
2023/01/01 01:36:13;;;;;;;9.15;0.85;;;;;;;;;;6213204;23;20012;-64
2023/01/01 01:38:43;;;;;;;10.10;0.60;;;;;;;;;;6205548;23;20012;-65
2023/01/01 01:41:12;;;;;;;12.02;1.20;;;;;;;;;;6221626;23;20012;-64
2023/01/01 01:43:55;;;;;;;10.33;0.80;;;;;;;;;;6223421;23;20062;-65
2023/01/01 01:46:26;;;;;;;8.48;0.90;;;;;;;;;;6199908;23;20047;-65
2023/01/01 01:48:54;;;;;;;6.40;0.88;;;;;;;;;;6222360;23;20016;-65
2023/01/01 01:51:25;;;;;;;8.63;0.65;;;;;;;;;;6213447;23;20039;-64
2023/01/01 01:53:55;;;;;;;8.82;0.95;;;;;;;;;;6218155;23;20454;-64
2023/01/01 01:56:25;;;;;;;6.70;0.50;;;;;;;;;;6187353;23;20040;-63
2023/01/01 01:58:53;;;;;;;12.20;1.17;;;;;;;;;;6219967;23;20020;-63
2023/01/01 02:01:22;;;;;;;9.23;0.82;;;;;;;;;;6217927;23;20012;-64
2023/01/01 02:03:53;;;;;;;10.25;1.17;;;;;;;;;;6195425;23;20022;-64
2023/01/01 02:06:21;;;;;;;9.05;0.93;;;;;;;;;;6216402;23;20012;-64
2023/01/01 02:08:49;;;;;;;9.67;1.10;;;;;;;;;;6215631;23;20039;-64
2023/01/01 02:11:17;;;;;;;14.10;1.10;;;;;;;;;;6213759;23;20119;-64
2023/01/01 02:13:48;;;;;;;8.70;0.77;;;;;;;;;;6208919;23;20225;-64
2023/01/01 02:16:20;;;;;;;9.95;1.33;;;;;;;;;;6217186;23;20038;-65
2023/01/01 02:18:51;;;;;;;11.73;1.10;;;;;;;;;;6218029;23;20020;-65
2023/01/01 02:21:20;;;;;;;11.50;1.77;;;;;;;;;;6214607;23;20023;-64
2023/01/01 02:23:54;;;;;;;12.57;1.30;;;;;;;;;;6200605;23;20467;-64
2023/01/01 02:26:37;;;;;;;9.52;1.00;;;;;;;;;;6183966;23;20605;-64
2023/01/01 02:29:20;;;;;;;13.13;1.55;;;;;;;;;;6221096;23;20020;-64
2023/01/01 02:31:50;;;;;;;8.02;0.95;;;;;;;;;;6215199;23;20016;-64
2023/01/01 02:34:22;;;;;;;7.83;1.20;;;;;;;;;;6197218;23;20016;-60
2023/01/01 02:36:51;;;;;;;9.52;1.08;;;;;;;;;;6196081;23;20016;-64
2023/01/01 02:39:20;;;;;;;13.90;1.23;;;;;;;;;;6203595;23;20367;-64
2023/01/01 02:41:50;;;;;;;11.18;1.08;;;;;;;;;;6219295;23;20024;-63
2023/01/01 02:44:21;;;;;;;8.98;1.02;;;;;;;;;;6224942;23;20020;-64
2023/01/01 02:46:48;;;;;;;10.93;1.37;;;;;;;;;;6204858;23;20020;-65
2023/01/01 02:49:17;;;;;;;14.35;1.08;;;;;;;;;;6220314;23;20040;-63
2023/01/01 02:51:57;;;;;;;10.82;1.02;;;;;;;;;;6223536;23;20732;-63
2023/01/01 02:54:32;;;;;;;10.48;1.00;;;;;;;;;;6218517;23;20012;-63
2023/01/01 02:57:04;;;;;;;13.68;1.10;;;;;;;;;;6211192;23;20012;-65
2023/01/01 03:02:31;;;;;;;12.65;1.20;;;;;;;;;;6191437;23;20716;-64
2023/01/01 03:05:03;;;;;;;11.27;1.20;;;;;;;;;;6211207;23;20020;-65
2023/01/01 03:07:35;;;;;;;19.15;2.88;;;;;;;;;;6214332;23;20087;-64
2023/01/01 03:10:07;;;;;;;9.13;0.77;;;;;;;;;;6190768;23;20036;-65
2023/01/01 03:12:42;;;;;;;14.83;1.23;;;;;;;;;;6217461;23;20447;-64
2023/01/01 03:15:15;;;;;;;17.33;1.70;;;;;;;;;;6204984;23;20012;-63
2023/01/01 03:17:46;;;;;;;14.57;1.33;;;;;;;;;;6215366;23;20526;-63
2023/01/01 03:20:17;;;;;;;10.40;1.30;;;;;;;;;;6207199;23;20480;-64
2023/01/01 03:22:47;;;;;;;16.92;1.23;;;;;;;;;;6186539;23;20510;-64
2023/01/01 03:25:17;;;;;;;12.20;1.00;;;;;;;;;;6221400;23;20103;-66
2023/01/01 03:27:51;;;;;;;12.73;1.40;;;;;;;;;;6211289;23;20047;-64
2023/01/01 03:30:21;;;;;;;12.50;1.10;;;;;;;;;;6220421;23;20509;-65
2023/01/01 03:33:02;;;;;;;15.13;1.13;;;;;;;;;;6211308;23;20012;-65
2023/01/01 03:35:36;;;;;;;10.73;0.75;;;;;;;;;;6214170;23;20012;-66
2023/01/01 03:38:06;;;;;;;9.03;0.90;;;;;;;;;;6190562;23;20050;-65
2023/01/01 03:40:36;;;;;;;11.45;1.58;;;;;;;;;;6219532;23;20066;-65
2023/01/01 03:43:06;;;;;;;20.45;1.95;;;;;;;;;;6214542;23;20023;-65
2023/01/01 03:45:37;;;;;;;14.70;1.23;;;;;;;;;;6205107;23;20077;-65
2023/01/01 03:48:08;;;;;;;12.60;1.02;;;;;;;;;;6223797;23;20348;-65
2023/01/01 03:50:40;;;;;;;11.47;1.30;;;;;;;;;;6215621;23;20012;-64
2023/01/01 03:53:09;;;;;;;11.45;1.50;;;;;;;;;;6178397;23;20013;-63
2023/01/01 03:55:39;;;;;;;18.40;1.65;;;;;;;;;;6192138;23;20013;-64
2023/01/01 03:58:10;;;;;;;16.85;0.95;;;;;;;;;;6181638;23;20043;-65
2023/01/01 04:00:46;;;;;;;14.70;1.38;;;;;;;;;;6186085;23;20059;-65
2023/01/01 04:03:15;;;;;;;12.43;1.67;;;;;;;;;;6176580;23;20017;-65
2023/01/01 04:05:45;;;;;;;11.15;1.00;;;;;;;;;;6181510;23;20012;-65
2023/01/01 04:08:14;;;;;;;8.45;0.90;;;;;;;;;;6187488;23;20008;-64
2023/01/01 04:10:42;;;;;;;12.13;1.27;;;;;;;;;;6186387;23;20044;-65
2023/01/01 04:13:10;;;;;;;9.93;0.95;;;;;;;;;;6189844;23;20443;-65
2023/01/01 04:15:39;;;;;;;10.93;1.20;;;;;;;;;;6175249;23;20012;-64
2023/01/01 04:18:08;;;;;;;13.32;1.10;;;;;;;;;;6189880;23;20059;-64
2023/01/01 04:20:35;;;;;;;13.40;0.90;;;;;;;;;;6184840;23;20017;-65
2023/01/01 04:23:03;;;;;;;12.13;1.73;;;;;;;;;;6186499;23;20016;-64
2023/01/01 04:25:32;;;;;;;14.05;1.13;;;;;;;;;;6177677;23;20066;-65
2023/01/01 04:28:02;;;;;;;18.27;1.60;;;;;;;;;;6188589;23;20024;-65
2023/01/01 04:30:30;;;;;;;9.23;1.25;;;;;;;;;;6177762;23;20640;-64
2023/01/01 04:32:59;;;;;;;9.38;1.08;;;;;;;;;;6190554;23;20108;-64
2023/01/01 04:35:27;;;;;;;10.35;0.90;;;;;;;;;;6183417;23;20640;-64
2023/01/01 04:37:54;;;;;;;7.82;0.65;;;;;;;;;;6164984;23;20675;-64
2023/01/01 04:40:22;;;;;;;8.50;0.57;;;;;;;;;;6180991;23;20311;-64
2023/01/01 04:42:53;;;;;;;8.15;0.70;;;;;;;;;;6193119;23;20013;-64
2023/01/01 04:45:20;;;;;;;7.85;0.77;;;;;;;;;;6184008;23;20356;-64
2023/01/01 04:47:48;;;;;;;6.05;0.50;;;;;;;;;;6187401;23;20051;-64
2023/01/01 04:50:17;;;;;;;8.10;0.85;;;;;;;;;;6183200;23;20023;-64
2023/01/01 04:52:45;;;;;;;6.03;0.80;;;;;;;;;;6207317;23;20051;-65
2023/01/01 04:55:12;;;;;;;7.47;0.77;;;;;;;;;;6181636;23;20055;-64
2023/01/01 04:57:41;;;;;;;4.40;0.40;;;;;;;;;;6216991;23;20016;-64
2023/01/01 05:00:09;;;;;;;8.07;0.60;;;;;;;;;;6209752;23;20538;-65
2023/01/01 05:02:36;;;;;;;5.88;0.40;;;;;;;;;;6219507;23;20016;-65
2023/01/01 05:05:04;;;;;;;6.17;0.63;;;;;;;;;;6216068;23;20070;-65
2023/01/01 05:07:34;;;;;;;6.15;0.50;;;;;;;;;;6192463;23;20099;-64
2023/01/01 05:10:01;;;;;;;3.45;0.28;;;;;;;;;;6213201;23;20051;-65
2023/01/01 05:12:30;;;;;;;3.75;0.38;;;;;;;;;;6213015;23;20020;-66
2023/01/01 05:14:58;;;;;;;7.43;0.70;;;;;;;;;;6221159;23;20498;-65
2023/01/01 05:17:25;;;;;;;6.00;0.40;;;;;;;;;;6209462;23;20086;-65
2023/01/01 05:19:53;;;;;;;4.82;0.40;;;;;;;;;;6217389;23;20448;-65
2023/01/01 05:22:21;;;;;;;4.18;0.30;;;;;;;;;;6215477;23;20016;-65
2023/01/01 05:24:54;;;;;;;3.20;0.40;;;;;;;;;;6220541;23;20020;-66
2023/01/01 05:27:22;;;;;;;3.70;0.57;;;;;;;;;;6220259;23;20020;-64
2023/01/01 05:29:49;;;;;;;4.50;0.53;;;;;;;;;;6204739;23;20023;-65
2023/01/01 05:32:17;;;;;;;6.97;0.50;;;;;;;;;;6219394;23;20011;-65
2023/01/01 05:34:44;;;;;;;3.05;0.30;;;;;;;;;;6210936;23;20047;-65
2023/01/01 05:37:12;;;;;;;4.70;0.30;;;;;;;;;;6221596;23;20012;-65
2023/01/01 05:39:39;;;;;;;3.63;0.28;;;;;;;;;;6203044;23;20458;-65
2023/01/01 05:42:09;;;;;;;6.77;0.37;;;;;;;;;;6191811;23;20012;-65
2023/01/01 05:44:37;;;;;;;4.65;0.60;;;;;;;;;;6212763;23;20019;-66
2023/01/01 05:47:05;;;;;;;7.50;0.68;;;;;;;;;;6223939;23;20012;-66
2023/01/01 05:49:35;;;;;;;12.13;1.15;;;;;;;;;;6204763;23;20062;-65
2023/01/01 05:52:02;;;;;;;10.38;0.88;;;;;;;;;;6216276;23;20012;-65
2023/01/01 05:54:33;;;;;;;7.13;0.97;;;;;;;;;;6215495;23;20467;-66
2023/01/01 05:57:01;;;;;;;9.32;1.65;;;;;;;;;;6204114;23;20024;-65
2023/01/01 05:59:30;;;;;;;7.93;0.93;;;;;;;;;;6218597;23;20658;-66
2023/01/01 06:01:57;;;;;;;12.73;0.98;;;;;;;;;;6212246;23;20043;-66
2023/01/01 06:04:25;;;;;;;10.70;0.95;;;;;;;;;;6215024;23;20054;-67
2023/01/01 06:06:53;;;;;;;8.17;1.03;;;;;;;;;;6177018;23;20229;-65
2023/01/01 06:09:20;;;;;;;12.52;0.85;;;;;;;;;;6219537;23;20058;-66
2023/01/01 06:11:48;;;;;;;9.25;0.93;;;;;;;;;;6205454;23;20051;-64
2023/01/01 06:14:16;;;;;;;10.30;0.80;;;;;;;;;;6218381;23;20012;-65
2023/01/01 06:16:45;;;;;;;16.40;1.00;;;;;;;;;;6182643;23;20020;-64
2023/01/01 06:19:13;;;;;;;8.30;0.83;;;;;;;;;;6216725;23;20012;-65
2023/01/01 06:21:40;;;;;;;16.90;1.33;;;;;;;;;;6204596;23;20356;-65
2023/01/01 06:24:08;;;;;;;10.15;1.20;;;;;;;;;;6218416;23;20019;-65
2023/01/01 06:26:36;;;;;;;10.45;0.88;;;;;;;;;;6210848;23;20012;-66
2023/01/01 06:29:03;;;;;;;12.38;1.35;;;;;;;;;;6217668;23;20043;-66
2023/01/01 06:31:31;;;;;;;17.30;1.73;;;;;;;;;;6199177;23;20447;-65
2023/01/01 06:34:08;;;;;;;14.32;0.98;;;;;;;;;;6219315;23;20085;-66
2023/01/01 06:36:36;;;;;;;10.90;1.20;;;;;;;;;;6184825;23;20108;-65
2023/01/01 06:39:03;;;;;;;8.40;0.90;;;;;;;;;;6204811;23;20020;-65
2023/01/01 06:41:31;;;;;;;11.15;0.90;;;;;;;;;;6189545;23;20637;-65
2023/01/01 06:44:00;;;;;;;6.37;0.63;;;;;;;;;;6217532;23;20091;-65
2023/01/01 06:46:29;;;;;;;7.32;0.70;;;;;;;;;;6217939;23;20013;-65
2023/01/01 06:48:58;;;;;;;9.50;0.55;;;;;;;;;;6219058;23;20032;-65
2023/01/01 06:51:28;;;;;;;9.52;0.93;;;;;;;;;;6208459;23;20051;-65
2023/01/01 06:53:58;;;;;;;10.25;0.80;;;;;;;;;;6218645;23;20012;-65
2023/01/01 06:56:25;;;;;;;11.33;1.20;;;;;;;;;;6203512;23;20016;-65
2023/01/01 06:58:53;;;;;;;14.38;1.00;;;;;;;;;;6191925;23;20042;-65
2023/01/01 07:01:22;;;;;;;10.68;1.00;;;;;;;;;;6181035;23;20434;-66
2023/01/01 07:03:53;;;;;;;11.70;1.42;;;;;;;;;;6216157;23;20078;-68
2023/01/01 07:06:22;;;;;;;20.15;1.00;;;;;;;;;;6218381;23;20012;-66
2023/01/01 07:08:51;;;;;;;8.83;1.37;;;;;;;;;;6206723;23;20073;-66
2023/01/01 07:11:18;;;;;;;13.27;1.20;;;;;;;;;;6221246;23;20026;-66
2023/01/01 07:13:46;;;;;;;13.55;1.23;;;;;;;;;;6206695;23;20103;-66
2023/01/01 07:16:14;;;;;;;11.65;0.95;;;;;;;;;;6221473;23;20012;-66
2023/01/01 07:18:42;;;;;;;14.88;1.17;;;;;;;;;;6168420;23;20043;-66
2023/01/01 07:21:24;;;;;;;9.47;0.90;;;;;;;;;;6218753;23;20012;-66
2023/01/01 07:23:57;;;;;;;15.85;1.08;;;;;;;;;;6211556;23;20022;-66
2023/01/01 07:26:26;;;;;;;7.10;0.40;;;;;;;;;;6206105;23;20073;-67
2023/01/01 07:28:57;;;;;;;11.77;0.90;;;;;;;;;;6223657;23;20012;-67
2023/01/01 07:31:34;;;;;;;5.38;0.77;;;;;;;;;;6200416;23;20642;-67
2023/01/01 07:34:02;;;;;;;11.73;0.80;;;;;;;;;;6219484;23;20546;-66
2023/01/01 07:36:30;;;;;;;7.72;0.68;;;;;;;;;;6213410;23;20833;-66
2023/01/01 07:38:59;;;;;;;7.88;0.40;;;;;;;;;;6209621;23;20016;-66
2023/01/01 07:41:27;;;;;;;6.47;0.75;;;;;;;;;;6218876;23;20039;-66
2023/01/01 07:43:55;;;;;;;13.25;0.73;;;;;;;;;;6215021;23;20020;-67
2023/01/01 07:46:22;;;;;;;6.40;0.40;;;;;;;;;;6221790;23;20036;-66
2023/01/01 07:48:52;;;;;;;9.02;0.45;;;;;;;;;;6212842;23;20042;-65
2023/01/01 07:51:21;;;;;;;8.35;1.10;;;;;;;;;;6219868;23;20567;-66
2023/01/01 07:53:49;;;;;;;7.68;0.50;;;;;;;;;;6203039;23;20682;-66
2023/01/01 07:56:18;;;;;;;8.98;0.95;;;;;;;;;;6222435;23;20016;-66
2023/01/01 07:58:45;;;;;;;10.57;0.70;;;;;;;;;;6205990;23;20035;-65
2023/01/01 08:01:14;;;;;;;7.30;0.63;;;;;;;;;;6193681;23;20447;-65
2023/01/01 08:03:42;;;;;;;11.60;0.80;;;;;;;;;;6184815;23;20731;-65
2023/01/01 08:06:10;;;;;;;10.52;1.05;;;;;;;;;;6213927;23;20019;-65
2023/01/01 08:08:38;;;;;;;10.43;0.70;;;;;;;;;;6210150;23;20222;-66
2023/01/01 08:11:05;;;;;;;11.00;0.80;;;;;;;;;;6219085;23;20020;-66
2023/01/01 08:13:34;;;;;;;12.80;1.17;;;;;;;;;;6207864;23;20050;-66
2023/01/01 08:16:02;;;;;;;9.13;1.10;;;;;;;;;;6218866;23;20344;-65
2023/01/01 08:18:30;;;;;;;9.55;1.38;;;;;;;;;;6211092;23;20020;-65
2023/01/01 08:20:57;;;;;;;11.18;0.82;;;;;;;;;;6222799;23;20043;-65
2023/01/01 08:23:25;;;;;;;12.37;0.77;;;;;;;;;;6209831;23;20462;-67
2023/01/01 08:25:53;;;;;;;12.68;1.38;;;;;;;;;;6216649;23;20046;-67
2023/01/01 08:28:21;;;;;;;12.95;0.80;;;;;;;;;;6215676;23;20016;-66
2023/01/01 08:30:50;;;;;;;13.88;1.38;;;;;;;;;;6213984;23;20020;-65
2023/01/01 08:33:17;;;;;;;9.30;0.98;;;;;;;;;;6214877;23;20439;-66
2023/01/01 08:35:45;;;;;;;11.77;0.90;;;;;;;;;;6211620;23;20486;-64
2023/01/01 08:38:20;;;;;;;12.02;0.95;;;;;;;;;;6215567;23;20530;-64
2023/01/01 08:40:48;;;;;;;15.52;1.25;;;;;;;;;;6208681;23;20074;-64
2023/01/01 08:43:16;;;;;;;11.05;1.20;;;;;;;;;;6186188;23;20012;-64
2023/01/01 08:45:44;;;;;;;7.97;0.77;;;;;;;;;;6224493;23;20600;-64
2023/01/01 08:48:13;;;;;;;12.33;1.20;;;;;;;;;;6213873;23;20039;-65
2023/01/01 08:50:40;;;;;;;11.10;1.00;;;;;;;;;;6206307;23;20048;-63
2023/01/01 08:53:08;;;;;;;7.82;0.60;;;;;;;;;;6218886;23;20040;-66
2023/01/01 08:55:35;;;;;;;17.95;1.40;;;;;;;;;;6203726;23;20012;-65
2023/01/01 08:58:05;;;;;;;14.23;1.08;;;;;;;;;;6223304;23;20016;-64
2023/01/01 09:00:33;;;;;;;12.07;0.97;;;;;;;;;;6186688;23;20474;-65
2023/01/01 09:03:00;;;;;;;26.63;1.92;;;;;;;;;;6196081;23;20016;-66
2023/01/01 09:05:29;;;;;;;16.85;1.42;;;;;;;;;;6210543;23;20644;-65
2023/01/01 09:07:57;;;;;;;13.88;1.10;;;;;;;;;;6218441;23;20058;-65
2023/01/01 09:10:25;;;;;;;11.70;1.50;;;;;;;;;;6204661;23;20039;-66
2023/01/01 09:12:52;;;;;;;19.30;1.10;;;;;;;;;;6196179;23;20031;-65
2023/01/01 09:15:20;;;;;;;17.58;1.05;;;;;;;;;;6203451;23;20321;-64
2023/01/01 09:17:48;;;;;;;15.45;1.33;;;;;;;;;;6220710;23;20062;-64
2023/01/01 09:20:15;;;;;;;13.05;1.00;;;;;;;;;;6209465;23;20756;-64
2023/01/01 09:22:45;;;;;;;21.63;1.40;;;;;;;;;;6218453;23;20459;-65
2023/01/01 09:25:14;;;;;;;17.03;1.50;;;;;;;;;;6214841;23;20091;-65
2023/01/01 09:27:42;;;;;;;21.10;2.08;;;;;;;;;;6207185;23;20447;-64
2023/01/01 09:30:10;;;;;;;11.63;1.48;;;;;;;;;;6214280;23;20012;-65
2023/01/01 09:32:37;;;;;;;10.23;1.27;;;;;;;;;;6209522;23;20079;-64
2023/01/01 09:35:05;;;;;;;18.85;2.72;;;;;;;;;;6214472;23;20046;-64
2023/01/01 09:37:34;;;;;;;20.50;1.73;;;;;;;;;;6210462;23;20102;-64
2023/01/01 09:40:04;;;;;;;18.48;1.25;;;;;;;;;;6219915;23;20016;-65
2023/01/01 09:42:34;;;;;;;12.18;1.70;;;;;;;;;;6213123;23;20031;-64
2023/01/01 09:45:15;;;;;;;20.88;1.60;;;;;;;;;;6209602;23;20151;-65
2023/01/01 09:47:45;;;;;;;17.55;1.40;;;;;;;;;;6209118;23;20120;-64
2023/01/01 09:50:14;;;;;;;12.33;1.50;;;;;;;;;;6214293;23;20012;-65
2023/01/01 09:52:45;;;;;;;16.38;2.15;;;;;;;;;;6213228;23;20474;-66
2023/01/01 09:55:21;;;;;;;17.63;1.40;;;;;;;;;;6182761;23;20360;-65
2023/01/01 09:57:49;;;;;;;20.83;1.60;;;;;;;;;;6177259;23;20020;-65
2023/01/01 10:00:18;;;;;;;21.73;1.67;;;;;;;;;;6216577;23;20065;-66
2023/01/01 10:02:52;;;;;;;26.60;2.03;;;;;;;;;;6213523;23;20259;-65
2023/01/01 10:05:28;;;;;;;22.80;2.35;;;;;;;;;;6215568;23;20358;-64
2023/01/01 10:07:59;;;;;;;24.13;3.28;;;;;;;;;;6217442;23;20039;-65
2023/01/01 10:10:34;;;;;;;16.23;2.53;;;;;;;;;;6209814;23;20091;-67
2023/01/01 10:13:06;;;;;;;15.57;1.98;;;;;;;;;;6213703;23;20036;-65
2023/01/01 10:15:36;;;;;;;18.47;2.03;;;;;;;;;;6165075;23;20575;-65
2023/01/01 10:18:05;;;;;;;15.90;1.55;;;;;;;;;;6220001;23;20672;-65
2023/01/01 10:20:36;;;;;;;17.92;1.25;;;;;;;;;;6210133;23;20012;-65
2023/01/01 10:23:12;;;;;;;17.30;2.13;;;;;;;;;;6213382;23;20055;-68
2023/01/01 10:25:42;;;;;;;20.58;2.88;;;;;;;;;;6221627;23;20091;-64
2023/01/01 10:28:13;;;;;;;20.90;2.30;;;;;;;;;;6178086;23;20023;-66
2023/01/01 10:30:41;;;;;;;12.45;1.73;;;;;;;;;;6179164;23;20094;-67
2023/01/01 10:33:11;;;;;;;22.95;3.30;;;;;;;;;;6210414;23;20059;-66
2023/01/01 10:35:41;;;;;;;18.67;1.90;;;;;;;;;;6220970;23;20043;-63
2023/01/01 10:38:12;;;;;;;16.70;1.83;;;;;;;;;;6211737;23;20964;-66
2023/01/01 10:40:41;;;;;;;26.23;2.90;;;;;;;;;;6210903;23;20040;-66
2023/01/01 10:43:14;;;;;;;15.90;1.58;;;;;;;;;;6219184;23;20091;-66
2023/01/01 10:45:46;;;;;;;27.15;2.03;;;;;;;;;;6219428;23;20286;-66
2023/01/01 10:48:16;;;;;;;17.95;2.42;;;;;;;;;;6211991;23;20016;-66
2023/01/01 10:50:45;;;;;;;18.35;1.33;;;;;;;;;;6210133;23;20821;-67
2023/01/01 10:53:20;;;;;;;21.83;2.00;;;;;;;;;;6217701;23;20012;-67
2023/01/01 10:55:50;;;;;;;15.27;1.20;;;;;;;;;;6213242;23;20019;-68
2023/01/01 10:58:26;;;;;;;13.60;1.98;;;;;;;;;;6212827;23;20091;-59
2023/01/01 11:00:58;;;;;;;19.50;2.13;;;;;;;;;;6214546;23;20043;-66
2023/01/01 11:03:27;;;;;;;22.17;1.65;;;;;;;;;;6218481;23;20024;-67
2023/01/01 11:06:16;;;;;;;13.87;2.10;;;;;;;;;;6199608;23;20024;-69
2023/01/01 11:08:47;;;;;;;13.07;1.83;;;;;;;;;;6187541;23;20066;-67
2023/01/01 11:11:21;;;;;;;29.27;3.20;;;;;;;;;;6192738;23;20016;-67
2023/01/01 11:13:50;;;;;;;19.83;2.33;;;;;;;;;;6208110;23;20028;-66
2023/01/01 11:16:17;;;;;;;23.05;1.92;;;;;;;;;;6217342;23;20451;-67
2023/01/01 11:18:45;;;;;;;21.70;2.23;;;;;;;;;;6201187;23;20070;-67
2023/01/01 11:21:19;;;;;;;16.75;1.45;;;;;;;;;;6210732;23;20047;-66
2023/01/01 11:23:47;;;;;;;11.38;1.33;;;;;;;;;;6207548;23;20457;-67
2023/01/01 11:26:23;;;;;;;13.52;1.63;;;;;;;;;;6216472;23;20397;-66
2023/01/01 11:29:01;;;;;;;20.95;1.33;;;;;;;;;;6201741;23;20099;-67
2023/01/01 11:31:35;;;;;;;11.30;1.60;;;;;;;;;;6207565;23;20012;-66
2023/01/01 11:34:04;;;;;;;10.90;1.00;;;;;;;;;;6211460;23;20066;-67
2023/01/01 11:36:33;;;;;;;14.20;1.42;;;;;;;;;;6218829;23;20073;-65
2023/01/01 11:39:06;;;;;;;10.20;1.05;;;;;;;;;;6210984;23;20032;-64
2023/01/01 11:41:45;;;;;;;7.18;1.00;;;;;;;;;;6204219;23;20249;-67
2023/01/01 11:44:21;;;;;;;12.50;0.90;;;;;;;;;;6215917;23;20020;-66
2023/01/01 11:46:49;;;;;;;6.75;1.23;;;;;;;;;;6220457;23;20517;-65
2023/01/01 11:49:22;;;;;;;10.63;1.67;;;;;;;;;;6178099;23;20340;-64
2023/01/01 11:51:50;;;;;;;8.80;0.95;;;;;;;;;;6214755;23;20028;-63
2023/01/01 11:54:24;;;;;;;11.65;1.13;;;;;;;;;;6210401;23;20071;-63
2023/01/01 11:56:57;;;;;;;14.60;1.63;;;;;;;;;;6209164;23;20020;-64
2023/01/01 11:59:28;;;;;;;17.77;1.48;;;;;;;;;;6204644;23;20084;-65
2023/01/01 12:02:02;;;;;;;9.75;1.00;;;;;;;;;;6216389;23;20435;-62
2023/01/01 12:04:31;;;;;;;15.00;1.70;;;;;;;;;;6205575;23;20070;-64
2023/01/01 12:07:03;;;;;;;14.38;1.25;;;;;;;;;;6211544;23;20070;-57
2023/01/01 12:09:33;;;;;;;13.63;1.10;;;;;;;;;;6210014;23;20557;-66
2023/01/01 12:12:06;;;;;;;16.05;1.67;;;;;;;;;;6206871;23;20538;-64
2023/01/01 12:14:39;;;;;;;16.02;2.22;;;;;;;;;;6211238;23;20012;-66
2023/01/01 12:17:09;;;;;;;18.08;1.42;;;;;;;;;;6204762;23;20020;-66
2023/01/01 12:19:40;;;;;;;16.75;2.15;;;;;;;;;;6212984;23;20027;-65
2023/01/01 12:22:14;;;;;;;11.00;0.97;;;;;;;;;;6206527;23;20331;-66
2023/01/01 12:24:44;;;;;;;9.13;1.05;;;;;;;;;;6202386;23;20012;-66
2023/01/01 12:27:18;;;;;;;12.27;1.33;;;;;;;;;;6188426;23;20008;-66
2023/01/01 12:29:54;;;;;;;15.77;1.77;;;;;;;;;;6210530;23;20056;-65
2023/01/01 12:32:25;;;;;;;16.77;1.60;;;;;;;;;;6215951;23;20067;-66
2023/01/01 12:34:56;;;;;;;10.70;1.33;;;;;;;;;;6212653;23;20264;-66
2023/01/01 12:37:33;;;;;;;13.65;1.83;;;;;;;;;;6183231;23;20016;-66
2023/01/01 12:40:22;;;;;;;17.27;1.42;;;;;;;;;;6214496;23;20032;-66
2023/01/01 12:42:59;;;;;;;12.80;1.63;;;;;;;;;;6203617;23;20024;-65
2023/01/01 12:45:34;;;;;;;13.95;1.52;;;;;;;;;;6212972;23;20020;-66
2023/01/01 12:48:07;;;;;;;10.27;1.10;;;;;;;;;;6208003;23;20047;-65
2023/01/01 12:50:40;;;;;;;10.20;1.23;;;;;;;;;;6208568;23;20016;-66
2023/01/01 12:53:17;;;;;;;13.70;1.50;;;;;;;;;;6214453;23;20040;-66
2023/01/01 12:55:55;;;;;;;19.77;2.08;;;;;;;;;;6203442;23;20480;-65
2023/01/01 12:58:26;;;;;;;14.57;1.48;;;;;;;;;;6220383;23;20012;-65
2023/01/01 13:00:56;;;;;;;9.10;1.37;;;;;;;;;;6211461;23;20016;-65
2023/01/01 13:03:26;;;;;;;15.70;1.67;;;;;;;;;;6205603;23;20332;-67
2023/01/01 13:05:56;;;;;;;9.55;0.98;;;;;;;;;;6214223;23;20062;-66
2023/01/01 13:08:24;;;;;;;16.38;1.40;;;;;;;;;;6181853;23;20074;-65
2023/01/01 13:10:52;;;;;;;15.85;1.65;;;;;;;;;;6214918;23;20087;-66
2023/01/01 13:13:29;;;;;;;21.10;1.80;;;;;;;;;;6203487;23;20012;-67
2023/01/01 13:15:57;;;;;;;15.40;1.75;;;;;;;;;;6218866;23;20427;-65
2023/01/01 13:18:26;;;;;;;21.83;2.55;;;;;;;;;;6175452;23;20027;-65
2023/01/01 13:20:55;;;;;;;20.23;1.75;;;;;;;;;;6191147;23;20020;-66
2023/01/01 13:23:39;;;;;;;23.00;1.73;;;;;;;;;;6176229;23;20454;-65
2023/01/01 13:26:36;;;;;;;13.83;1.93;;;;;;;;;;6213760;23;20020;-65
2023/01/01 13:29:29;;;;;;;19.98;2.05;;;;;;;;;;6131039;23;20020;-64
2023/01/01 13:32:01;;;;;;;22.05;2.45;;;;;;;;;;6180535;23;20055;-60
2023/01/01 13:34:34;;;;;;;24.17;1.77;;;;;;;;;;6205838;23;20023;-64
2023/01/01 13:37:21;;;;;;;14.60;1.15;;;;;;;;;;6217656;23;20024;-65
2023/01/01 13:39:52;;;;;;;15.17;1.40;;;;;;;;;;6211758;23;20042;-64
2023/01/01 13:42:39;;;;;;;22.42;1.63;;;;;;;;;;6212285;23;20012;-66
2023/01/01 13:45:13;;;;;;;14.13;1.70;;;;;;;;;;6213272;23;20020;-64
2023/01/01 13:48:05;;;;;;;22.13;1.48;;;;;;;;;;6209866;23;20020;-64
2023/01/01 13:50:37;;;;;;;16.58;2.58;;;;;;;;;;6206858;23;20040;-63
2023/01/01 13:53:11;;;;;;;18.30;1.93;;;;;;;;;;6203260;23;20012;-64
2023/01/01 13:55:42;;;;;;;19.95;1.95;;;;;;;;;;6204736;23;20008;-64
2023/01/01 13:58:19;;;;;;;17.65;1.75;;;;;;;;;;6210656;23;20087;-64
2023/01/01 14:00:57;;;;;;;27.13;2.75;;;;;;;;;;6209343;23;20069;-64
2023/01/01 14:03:27;;;;;;;27.95;2.63;;;;;;;;;;6214022;23;20091;-63
2023/01/01 14:05:56;;;;;;;23.03;2.23;;;;;;;;;;6213578;23;20299;-63
2023/01/01 14:08:27;;;;;;;26.00;2.03;;;;;;;;;;6211784;23;20020;-64
2023/01/01 14:10:54;;;;;;;27.08;2.15;;;;;;;;;;6216715;23;20016;-64
2023/01/01 14:13:26;;;;;;;26.17;2.22;;;;;;;;;;6210419;23;20012;-64
2023/01/01 14:15:57;;;;;;;22.13;2.35;;;;;;;;;;6218862;23;20375;-64
2023/01/01 14:18:30;;;;;;;19.23;1.67;;;;;;;;;;6179098;23;20544;-65
2023/01/01 14:20:57;;;;;;;21.75;2.88;;;;;;;;;;6217450;23;20050;-64
2023/01/01 14:23:29;;;;;;;26.67;2.00;;;;;;;;;;6209987;23;20046;-65
2023/01/01 14:25:57;;;;;;;20.00;1.88;;;;;;;;;;6217139;23;20636;-64
2023/01/01 14:28:26;;;;;;;22.08;2.17;;;;;;;;;;6211594;23;20073;-65
2023/01/01 14:30:54;;;;;;;16.27;1.97;;;;;;;;;;6178266;23;20020;-63
2023/01/01 14:33:23;;;;;;;27.08;2.33;;;;;;;;;;6215167;23;20091;-64
2023/01/01 14:35:53;;;;;;;17.13;1.42;;;;;;;;;;6211649;23;20046;-64
2023/01/01 14:38:26;;;;;;;15.07;1.67;;;;;;;;;;6213370;23;20016;-63
2023/01/01 14:41:06;;;;;;;19.38;2.40;;;;;;;;;;6207358;23;20590;-63
2023/01/01 14:43:35;;;;;;;24.87;1.87;;;;;;;;;;6208508;23;20517;-64
2023/01/01 14:46:04;;;;;;;25.77;2.28;;;;;;;;;;6222903;23;20012;-63
2023/01/01 14:48:42;;;;;;;19.08;1.75;;;;;;;;;;6211868;23;20447;-64
2023/01/01 14:51:12;;;;;;;23.35;2.15;;;;;;;;;;6207941;23;20043;-64
2023/01/01 14:53:41;;;;;;;17.20;1.70;;;;;;;;;;6188764;23;20020;-63
2023/01/01 14:56:10;;;;;;;32.17;3.33;;;;;;;;;;6217040;23;20040;-64
2023/01/01 14:58:40;;;;;;;24.70;2.92;;;;;;;;;;6205661;23;20027;-65